Nearby METAR Reports

 

K8A0 - Albertville Muni, AL
Distance from station: SW 1mi, 2km
Updated: Tue, 26-Oct-2021 2:30am CDT
Mostly cloudy
Mostly cloudy
 Wind from N
Wind: N 7 mph , 11 km/h
Temperature: 52°F , 11°C
Dew Point: 43°F , 6°C
Humidity: 72%
Barometer: 29.98 inHg , 1015.2 hPa
Clouds: Mostly cloudy
Visibility: 10 miles , 16 km
Cloud details: Mostly cloudy 2400 ft
2021/10/26 07:30 K8A0 260730Z AUTO 01006KT 10SM BKN024 11/06 A2998 RMK AO2
KGAD - Gadsden Muni, AL
Distance from station: SSE 21mi, 35km
Updated: Tue, 26-Oct-2021 1:56am CDT

 Wind from N
Wind: N 12 mph , 19 km/h, Gust: 20 mph , 31 km/h
Temperature: 55°F , 13°C
Dew Point: 46°F , 8°C
Humidity: 72%
Barometer: 29.99 inHg , 1015.6 hPa
Visibility: 10 miles , 16 km
2021/10/26 06:56 KGAD 260656Z AUTO 35010G17KT 10SM 13/08 A2999 RMK AO2 SLP155 T01330083 $
 
K4A6 - Scottsboro, AL
Distance from station: NNE 33mi, 53km
Updated: Tue, 26-Oct-2021 2:35am CDT
Overcast
Overcast
 Wind from N
Wind: N 10 mph , 17 km/h
Temperature: 55°F , 13°C
Dew Point: 46°F , 8°C
Humidity: 72%
Barometer: 30.00 inHg , 1015.9 hPa
Clouds: Overcast
Visibility: 10 miles , 16 km
Cloud details: Overcast 2600 ft
2021/10/26 07:35 K4A6 260735Z AUTO 35009KT 10SM OVC026 13/08 A3000 RMK AO2
K4A9 - Ft Payne, AL
Distance from station: ENE 33mi, 54km
Updated: Tue, 26-Oct-2021 2:35am CDT
Overcast
Overcast
 Wind from NNE
Wind: NNE 8 mph , 13 km/h, Gust: 18 mph , 30 km/h
Temperature: 54°F , 12°C
Dew Point: 45°F , 7°C
Humidity: 72%
Barometer: 29.97 inHg , 1014.9 hPa
Clouds: Overcast
Visibility: 10 miles , 16 km
Cloud details: Overcast 2400 ft
2021/10/26 07:35 K4A9 260735Z AUTO 03007G16KT 330V040 10SM OVC024 12/07 A2997 RMK AO2 T01170068
 
KMDQ - Huntsville, AL
Distance from station: NNW 47mi, 75km
Updated: Tue, 26-Oct-2021 2:35am CDT
Overcast
Overcast
 Wind from N
Wind: N 10 mph , 17 km/h
Temperature: 54°F , 12°C
Dew Point: 45°F , 7°C
Humidity: 72%
Barometer: 30.01 inHg , 1016.3 hPa
Clouds: Overcast
Visibility: 10 miles , 16 km
Cloud details: Overcast 2500 ft
2021/10/26 07:35 KMDQ 260735Z AUTO 36009KT 10SM OVC025 12/07 A3001 RMK A02 T01210073
KDCU - Decatur, AL
Distance from station: NW 49mi, 80km
Updated: Tue, 26-Oct-2021 2:00am CDT
Overcast
Overcast
 Wind from NNW
Wind: NNW 10 mph , 17 km/h
Temperature: 54°F , 12°C
Dew Point: 45°F , 7°C
Humidity: 72%
Barometer: 30.02 inHg , 1016.6 hPa
Clouds: Overcast
Visibility: 10 miles , 16 km
Cloud details: Overcast 2900 ft
2021/10/26 07:00 KDCU 260700Z AUTO 34009KT 10SM OVC029 12/07 A3002 RMK AO2 T01220072
 
KGKT - Sevierville, TN
Distance from station: NE 235mi, 378km
Updated: Tue, 26-Oct-2021 2:35am CDT
Overcast
Overcast
 Wind from calm
Wind: Calm
Temperature: 54°F , 12°C
Dew Point: 46°F , 8°C
Humidity: 77%
Barometer: 29.92 inHg , 1013.2 hPa
Clouds: Overcast
Visibility: 10 miles , 16 km
Cloud details: Overcast 3200 ft
2021/10/26 07:35 KGKT 260735Z AUTO 00000KT 10SM OVC032 12/08 A2992 RMK A01
KSSI - Jeckyll Island, GA
Distance from station: SE 467mi, 752km
Updated: Tue, 26-Oct-2021 1:53am CDT
Partly cloudy
Partly cloudy
 Wind from W
Wind: W 9 mph , 15 km/h
Temperature: 73°F , 23°C
Dew Point: 72°F , 22°C
Humidity: 94%
Barometer: 29.81 inHg , 1009.5 hPa
Clouds: Partly cloudy
Visibility: 10 miles , 16 km
Cloud details: Partly cloudy 2700 ft
Partly cloudy 3600 ft
2021/10/26 06:53 KSSI 260653Z AUTO 26008KT 10SM SCT027 SCT036 23/22 A2981 RMK AO2 RAB26E49 SLP095 P0001 T02280217
 
KECP - Panama City, FL
Distance from station: S 330mi, 531km
Updated: Tue, 26-Oct-2021 1:53am CDT
Few Clouds
Few Clouds
 Wind from WNW
Wind: WNW 6 mph , 9 km/h
Temperature: 68°F , 20°C
Dew Point: 68°F , 20°C
Humidity: 100%
Barometer: 29.90 inHg , 1012.5 hPa
Clouds: Few Clouds
Visibility: 10 miles , 16 km
Cloud details: Few Clouds 5000 ft
2021/10/26 06:53 KECP 260653Z AUTO 30005KT 10SM FEW050 20/20 A2990 RMK AO2 SLP135 T02000200
KTPA - Tampa, FL,
Distance from station: S 600mi, 965km
Updated: Tue, 26-Oct-2021 1:53am CDT
Few Clouds
Few Clouds
 Wind from W
Wind: W 9 mph , 15 km/h
Temperature: 81°F , 27°C
Heat Index: 87°F , 31°C
Dew Point: 75°F , 24°C
Humidity: 84%
Barometer: 29.89 inHg , 1012.2 hPa
Clouds: Few Clouds
Visibility: 10 miles , 16 km
Cloud details: Few Clouds 1500 ft
2021/10/26 06:53 KTPA 260653Z 26008KT 10SM FEW015 27/24 A2989 RMK AO2 SLP122 T02670239 $
 
KMTH - Marathon, FL,
Distance from station: S 915mi, 1473km
Updated: Tue, 26-Oct-2021 1:53am CDT
Mist, Few clouds
Mist, Few clouds
 Wind from W
Wind: W 5 mph , 7 km/h
Temperature: 79°F , 26°C
Dew Point: 79°F , 26°C
Humidity: 100%
Barometer: 29.93 inHg , 1013.5 hPa
Summary: Mist
Clouds: Few Clouds
Visibility: 6 miles , 10 km
Cloud details: Few Clouds 9500 ft
2021/10/26 06:53 KMTH 260653Z AUTO 26004KT 6SM BR FEW095 26/26 A2993 RMK AO2 SLP136 T02610261 $
KNYL - Yuma, AZ
Distance from station: W 3147mi, 5065km
Updated: Tue, 26-Oct-2021 1:57am CDT
Partly cloudy
Partly cloudy
 Wind from WNW
Wind: WNW 18 mph , 30 km/h, Gust: 28 mph , 44 km/h
Temperature: 64°F , 18°C
Dew Point: 45°F , 7°C
Humidity: 49%
Barometer: 29.85 inHg , 1010.8 hPa
Clouds: Partly cloudy
Visibility: 7 miles , 11 km
Cloud details: Partly cloudy 10000 ft
2021/10/26 06:57 KNYL 260657Z AUTO 30016G24KT 7SM SCT100 18/07 A2985 RMK AO2 SLP107 LAST T01830067 403170178 $
 
PABI - Ft. Greely, AK
Distance from station: NW 4300mi, 7167km
Updated: Tue, 26-Oct-2021 1:53am CDT
Overcast
Overcast
 Wind from calm
Wind: Calm
Temperature: 23°F , -5°C
Dew Point: 21°F , -6°C
Humidity: 93%
Barometer: 29.23 inHg , 989.8 hPa
Clouds: Overcast
Visibility: 10 miles , 16 km
Cloud details: Overcast 700 ft
2021/10/26 06:53 PABI 260653Z AUTO 00000KT 10SM OVC007 M05/M06 A2923 RMK AO2 SLP928 T10501061 TSNO